Latest Coastal Weather Observations for Cato Island

IDQ60701

Issued at 2:33 am EST Thursday 23 November 2017 (issued every 10 minutes, with the page automatically refreshed every 10 minutes)

About coastal observations | Map of coastal stations | Coastal observations for QLD | Marine services | Other Formats
Station Details ID: 200601 Name: CATO ISLAND Lat: -23.25 Lon: 155.54 Height: 6.3 m
Data from the previous 72 hours. | See also: Recent months for locations in Queensland
Date/Time
EST
Temp
°C
Wind Pressure Rain since
9am
mm
Weather Cloud Vis
km
Sea
Height
m
Swell
Dir  Spd
kts
Gust
kts
hPa Trend Height
m
Period
s
Dir
23/02:30am 23.6 - 21 24 1010.0 - - - - - - - - -
23/02:00am 23.7 - 22 25 1010.1 - - - - - - - - -
23/01:30am 23.8 - 21 25 1010.3 - - - - - - - - -
23/01:00am 23.7 - 21 25 1010.6 - - - - - - - - -
23/12:30am 23.8 - 22 27 1011.0 - - - - - - - - -
23/12:00am 23.9 - 21 25 1011.3 - - - - - - - - -
 
Date/Time
EST
Temp
°C
Wind Pressure Rain since
9am
mm
Weather Cloud Vis
km
Sea
Height
m
Swell
Dir  Spd
kts
Gust
kts
hPa Trend Height
m
Period
s
Dir
22/11:30pm 23.2 - 19 23 1011.7 - - - - - - - - -
22/11:18pm 22.5 - 22 34 1012.2 - - - - - - - - -
22/11:00pm 23.5 - 22 25 1012.2 - - - - - - - - -
22/10:30pm 23.8 - 22 26 1012.6 - - - - - - - - -
22/10:00pm 23.7 - 22 27 1012.5 - - - - - - - - -
22/09:30pm 24.0 - 22 25 1012.6 - - - - - - - - -
22/09:00pm 24.0 - 20 24 1012.6 - - - - - - - - -
22/08:30pm 23.9 - 19 22 1012.6 - - - - - - - - -
22/08:00pm 23.6 - 17 20 1012.6 - - - - - - - - -
22/07:30pm 23.8 - 18 21 1012.4 - - - - - - - - -
22/07:00pm 23.7 - 17 20 1012.6 - - - - - - - - -
22/06:30pm 23.6 - 18 21 1012.6 - - - - - - - - -
22/06:00pm 23.7 - 17 21 1012.3 - - - - - - - - -
22/05:30pm 23.4 - 18 21 1011.9 - - - - - - - - -
22/05:00pm 23.6 - 19 22 1011.6 - - - - - - - - -
22/04:30pm 23.6 - 18 21 1011.6 - - - - - - - - -
22/04:00pm 23.7 - 18 19 1011.4 - - - - - - - - -
22/03:30pm 23.7 - 18 22 1011.2 - - - - - - - - -
22/03:00pm 23.9 - 17 21 1011.4 - - - - - - - - -
22/02:30pm 23.7 - 17 20 1011.7 - - - - - - - - -
22/02:00pm 24.0 - 17 21 1011.6 - - - - - - - - -
22/01:30pm 23.8 - 18 21 1011.6 - - - - - - - - -
22/01:00pm 23.9 - 18 21 1011.6 - - - - - - - - -
22/12:30pm 23.9 - 19 23 1012.0 - - - - - - - - -
22/12:00pm 24.2 - 19 22 1012.1 - - - - - - - - -
22/11:30am 23.9 - 18 21 1012.3 - - - - - - - - -
22/11:00am 24.0 - 19 23 1012.5 - - - - - - - - -
22/10:30am 24.1 - 18 23 1012.9 - - - - - - - - -
22/10:00am 23.7 - 18 22 1013.2 - - - - - - - - -
22/09:30am 23.6 - 19 23 1013.1 - - - - - - - - -
22/09:00am 23.5 - 20 25 1013.1 - - - - - - - - -
22/08:30am 23.9 - 19 22 1013.3 - - - - - - - - -
22/08:00am 23.9 - 19 24 1013.1 - - - - - - - - -
22/07:30am 23.7 - 20 23 1013.0 - - - - - - - - -
22/07:00am 23.6 - 20 25 1013.0 - - - - - - - - -
22/06:30am 23.2 - 21 24 1012.6 - - - - - - - - -
22/06:00am 23.4 - 19 22 1012.6 - - - - - - - - -
22/05:30am 23.1 - 19 23 1012.5 - - - - - - - - -
22/05:00am 23.0 - 20 23 1012.1 - - - - - - - - -
22/04:30am 23.0 - 20 23 1011.5 - - - - - - - - -
22/04:00am 22.9 - 21 25 1011.4 - - - - - - - - -
22/03:30am 22.8 - 20 23 1011.3 - - - - - - - - -
22/03:00am 23.0 - 21 24 1011.1 - - - - - - - - -
22/02:30am 23.0 - 21 25 1011.1 - - - - - - - - -
22/02:00am 22.9 - 20 25 1011.5 - - - - - - - - -
22/01:30am 22.9 - 20 23 1011.7 - - - - - - - - -
22/01:00am 23.0 - 20 25 1012.0 - - - - - - - - -
22/12:30am 23.0 - 19 22 1012.6 - - - - - - - - -
22/12:00am 23.0 - 20 23 1012.9 - - - - - - - - -
 
Date/Time
EST
Temp
°C
Wind Pressure Rain since
9am
mm
Weather Cloud Vis
km
Sea
Height
m
Swell
Dir  Spd
kts
Gust
kts
hPa Trend Height
m
Period
s
Dir
21/11:30pm 23.0 - 20 23 1013.1 - - - - - - - - -
21/11:00pm 23.1 - 20 23 1013.6 - - - - - - - - -
21/10:30pm 23.1 - 19 24 1013.9 - - - - - - - - -
21/10:00pm 23.2 - 20 25 1014.1 - - - - - - - - -
21/09:30pm 23.5 - 19 23 1014.3 - - - - - - - - -
21/09:00pm 23.4 - 21 25 1014.1 - - - - - - - - -
21/08:30pm 23.5 - 21 25 1014.1 - - - - - - - - -
21/08:00pm 23.5 - 19 22 1014.2 - - - - - - - - -
21/07:30pm 23.4 - 20 23 1014.1 - - - - - - - - -
21/07:00pm 23.4 - 18 21 1014.1 - - - - - - - - -
21/06:30pm 23.4 - 19 22 1013.9 - - - - - - - - -
21/06:00pm 23.3 - 17 22 1013.9 - - - - - - - - -
21/05:30pm 23.5 - 19 22 1013.5 - - - - - - - - -
21/05:00pm 23.4 - 19 22 1013.3 - - - - - - - - -
21/04:30pm 23.4 - 20 22 1013.0 - - - - - - - - -
21/04:00pm 23.4 - 19 22 1013.0 - - - - - - - - -
21/03:30pm 23.7 - 18 21 1013.1 - - - - - - - - -
21/03:00pm 23.7 - 17 22 1013.2 - - - - - - - - -
21/02:30pm 23.8 - 16 19 1013.4 - - - - - - - - -
21/02:00pm 23.8 - 17 20 1013.7 - - - - - - - - -
21/01:30pm 23.9 - 18 21 1013.8 - - - - - - - - -
21/01:00pm 23.9 - 18 22 1014.0 - - - - - - - - -
21/12:30pm 24.0 - 18 21 1014.4 - - - - - - - - -
21/12:00pm 23.7 - 17 21 1014.5 - - - - - - - - -
21/11:30am 23.9 - 18 22 1014.5 - - - - - - - - -
21/11:00am 23.8 - 19 22 1014.5 - - - - - - - - -
21/10:30am 23.6 - 19 23 1014.6 - - - - - - - - -
21/10:00am 24.1 - 19 21 1014.7 - - - - - - - - -
21/09:30am 23.7 - 18 23 1014.8 - - - - - - - - -
21/09:00am 23.5 - 20 24 1014.8 - - - - - - - - -
21/08:30am 23.7 - 18 22 1014.8 - - - - - - - - -
21/08:00am 23.6 - 19 22 1014.8 - - - - - - - - -
21/07:30am 23.4 - 19 23 1014.7 - - - - - - - - -
21/07:00am 23.3 - 19 22 1014.6 - - - - - - - - -
21/06:30am 23.1 - 19 22 1014.4 - - - - - - - - -
21/06:00am 22.6 - 22 25 1014.1 - - - - - - - - -
21/05:30am 22.7 - 20 24 1013.6 - - - - - - - - -
21/05:00am 22.6 - 18 22 1013.5 - - - - - - - - -
21/04:30am 23.0 - 18 22 1013.5 - - - - - - - - -
21/04:00am 22.8 - 17 20 1013.6 - - - - - - - - -
21/03:30am 22.6 - 18 25 1013.4 - - - - - - - - -
21/03:00am 22.7 - 17 20 1013.3 - - - - - - - - -
21/02:30am 22.8 - 19 23 1013.3 - - - - - - - - -
21/02:00am 22.6 - 19 22 1013.4 - - - - - - - - -
21/01:30am 22.9 - 18 22 1013.5 - - - - - - - - -
21/01:00am 22.8 - 19 23 1013.7 - - - - - - - - -
21/12:30am 22.8 - 20 23 1014.0 - - - - - - - - -
21/12:00am 22.8 - 20 23 1014.2 - - - - - - - - -
 
Date/Time
EST
Temp
°C
Wind Pressure Rain since
9am
mm
Weather Cloud Vis
km
Sea
Height
m
Swell
Dir  Spd
kts
Gust
kts
hPa Trend Height
m
Period
s
Dir
20/11:30pm 23.0 - 21 25 1014.6 - - - - - - - - -
20/11:00pm 23.1 - 22 26 1014.8 - - - - - - - - -
20/10:30pm 23.0 - 22 25 1015.0 - - - - - - - - -
20/10:00pm 23.0 - 20 24 1015.3 - - - - - - - - -
20/09:30pm 23.0 - 21 24 1015.4 - - - - - - - - -
20/09:00pm 23.1 - 19 22 1015.6 - - - - - - - - -
20/08:30pm 23.2 - 19 23 1015.5 - - - - - - - - -
20/08:00pm 23.3 - 19 21 1015.5 - - - - - - - - -
20/07:30pm 23.1 - 20 23 1015.4 - - - - - - - - -
20/07:00pm 23.1 - 20 25 1015.3 - - - - - - - - -
20/06:30pm 23.2 - 19 23 1014.9 - - - - - - - - -
20/06:00pm 23.2 - 19 22 1014.8 - - - - - - - - -
20/05:30pm 23.3 - 20 23 1014.5 - - - - - - - - -
20/05:00pm 23.5 - 20 23 1014.2 - - - - - - - - -
20/04:30pm 23.5 - 19 21 1013.9 - - - - - - - - -
20/04:00pm 23.5 - 19 23 1013.8 - - - - - - - - -
20/03:30pm 23.6 - 18 22 1013.7 - - - - - - - - -
20/03:00pm 23.2 - 20 22 1013.7 - - - - - - - - -
20/02:30pm 23.7 - 17 20 1013.7 - - - - - - - - -
20/02:00pm 23.8 - 16 18 1014.0 - - - - - - - - -
20/01:30pm 23.6 - 16 21 1014.4 - - - - - - - - -
20/01:00pm 23.6 - 16 19 1014.5 - - - - - - - - -
20/12:30pm 23.8 - 16 18 1014.7 - - - - - - - - -
20/12:00pm 23.8 - 16 18 1015.0 - - - - - - - - -
20/11:30am 23.6 - 16 19 1015.4 - - - - - - - - -
20/11:00am 23.5 - 17 20 1015.4 - - - - - - - - -
20/10:30am 23.5 - 19 22 1015.3 - - - - - - - - -
20/10:00am 23.3 - 19 23 1015.5 - - - - - - - - -
20/09:30am 22.8 - 14 18 1015.6 - - - - - - - - -
20/09:00am 23.0 - 18 22 1015.5 - - - - - - - - -
20/08:30am 22.4 - 13 18 1015.6 - - - - - - - - -
20/08:00am 21.8 - 19 21 1015.6 - - - - - - - - -
20/07:30am 21.4 - 19 22 1015.5 - - - - - - - - -
20/07:00am 22.3 - 19 24 1015.1 - - - - - - - - -
20/06:30am 22.7 - 19 22 1014.7 - - - - - - - - -
20/06:00am 22.6 - 20 24 1014.4 - - - - - - - - -
20/05:30am 22.6 - 16 19 1014.0 - - - - - - - - -
20/05:00am 22.7 - 16 21 1013.5 - - - - - - - - -
20/04:30am 22.8 - 15 17 1013.4 - - - - - - - - -
20/04:00am 22.6 - 15 19 1013.2 - - - - - - - - -
20/03:30am 22.5 - 15 17 1013.1 - - - - - - - - -
20/03:00am 22.6 - 15 17 1013.1 - - - - - - - - -

Other Formats:

Comma delimited format used in spreadsheet applications
http://www.bom.gov.au/fwo/IDQ60701/IDQ60701.94394.axf

JavaScript Object Notation format (JSON) in row-major order
http://www.bom.gov.au/fwo/IDQ60701/IDQ60701.94394.json